Time;durP1;ratioP1;P1;durP2;ratioP2;P2;SDS_P1;SDS_P2;PMS_P1;PMS_P2;Temp;Humidity;BMP_temperature;BMP_pressure;BME280_temperature;BME280_humidity;BME280_pressure;Samples;Min_cycle;Max_cycle;Signal;HPM_P1;HPM_P2
2023/07/14 00:01:40;;;;;;;7.03;3.87;;;;;;;13.99;100.00;101229.72;4943208;29;20035;-75
2023/07/14 00:04:14;;;;;;;11.20;4.00;;;;;;;13.91;100.00;101228.75;4941259;29;20027;-73
2023/07/14 00:06:41;;;;;;;17.27;5.32;;;;;;;13.91;100.00;101231.44;4920904;29;20058;-76
2023/07/14 00:09:32;;;;;;;8.60;4.50;;;;;;;13.99;100.00;101238.63;4931629;29;20023;-74
2023/07/14 00:11:59;;;;;;;13.30;4.93;;;;;;;13.90;100.00;101229.75;4918440;29;20413;-76
2023/07/14 00:14:24;;;;;;;13.95;5.00;;;;;;;13.96;100.00;101238.13;4928382;29;20393;-75
2023/07/14 00:16:51;;;;;;;8.48;4.15;;;;;;;13.88;100.00;101221.06;4926442;29;20039;-73
2023/07/14 00:19:17;;;;;;;10.52;4.88;;;;;;;13.85;100.00;101220.53;4937911;29;20116;-74
2023/07/14 00:21:43;;;;;;;;;;;;;;;13.85;100.00;101226.75;4928915;29;20028;-75
2023/07/14 00:24:17;;;;;;;10.00;4.20;;;;;;;13.75;100.00;101226.13;4931869;29;20272;-73
2023/07/14 00:26:47;;;;;;;12.02;4.93;;;;;;;13.74;100.00;101229.78;4931344;29;20035;-74
2023/07/14 00:29:27;;;;;;;17.25;5.18;;;;;;;13.72;100.00;101242.56;4930959;29;20318;-75
2023/07/14 00:31:53;;;;;;;13.93;4.93;;;;;;;13.72;100.00;101237.19;4909676;29;20055;-74
2023/07/14 00:34:19;;;;;;;13.48;4.18;;;;;;;13.74;100.00;101240.53;4936146;29;20552;-73
2023/07/14 00:36:44;;;;;;;14.83;5.37;;;;;;;13.76;100.00;101237.69;4931589;29;20059;-74
2023/07/14 00:39:09;;;;;;;11.17;4.97;;;;;;;13.71;100.00;101240.88;4928234;29;20480;-75
2023/07/14 00:41:35;;;;;;;9.17;5.10;;;;;;;13.74;100.00;101237.84;4931491;29;20031;-74
2023/07/14 00:44:01;;;;;;;15.00;5.13;;;;;;;13.69;100.00;101242.88;4931041;29;20034;-75
2023/07/14 00:46:29;;;;;;;16.50;5.30;;;;;;;13.69;100.00;101232.16;4920381;29;20087;-75
2023/07/14 00:48:59;;;;;;;13.63;5.53;;;;;;;13.68;100.00;101241.22;4929369;29;20444;-74
2023/07/14 00:51:28;;;;;;;10.15;4.75;;;;;;;13.69;100.00;101237.53;4929020;29;20067;-75
2023/07/14 00:53:54;;;;;;;16.10;5.45;;;;;;;13.71;100.00;101241.69;4948500;28;20041;-73
2023/07/14 00:56:28;;;;;;;12.17;4.93;;;;;;;13.72;100.00;101242.56;4929711;28;20035;-75
2023/07/14 00:58:53;;;;;;;17.65;5.70;;;;;;;13.70;100.00;101245.41;4937618;28;20070;-73
2023/07/14 01:01:24;;;;;;;8.67;4.77;;;;;;;13.66;100.00;101248.59;4930684;29;20072;-74
2023/07/14 01:03:55;;;;;;;13.57;4.90;;;;;;;13.61;100.00;101250.97;4925001;29;20048;-75
2023/07/14 01:06:28;;;;;;;17.35;5.40;;;;;;;13.61;100.00;101261.69;4920046;29;20051;-75
2023/07/14 01:09:08;;;;;;;13.85;5.30;;;;;;;13.58;100.00;101260.19;4925628;29;20042;-75
2023/07/14 01:11:49;;;;;;;13.07;5.28;;;;;;;13.55;100.00;101257.81;4936989;29;20066;-75
2023/07/14 01:14:28;;;;;;;12.63;5.53;;;;;;;13.51;100.00;101262.72;4931274;29;20485;-74
2023/07/14 01:16:56;;;;;;;10.77;5.55;;;;;;;13.48;100.00;101267.56;4935895;29;20039;-74
2023/07/14 01:19:39;;;;;;;11.27;6.50;;;;;;;13.30;100.00;101252.50;4933832;29;20531;-75
2023/07/14 01:22:39;;;;;;;10.00;6.63;;;;;;;13.23;100.00;101256.81;4930567;29;20050;-76
2023/07/14 01:25:33;;;;;;;23.60;6.65;;;;;;;13.19;100.00;101260.00;4944550;28;20027;-74
2023/07/14 01:28:03;;;;;;;13.27;7.07;;;;;;;13.08;100.00;101251.28;4928581;29;20554;-73
2023/07/14 01:30:29;;;;;;;16.25;6.80;;;;;;;13.05;100.00;101245.41;4920183;29;20524;-74
2023/07/14 01:32:54;;;;;;;12.77;6.55;;;;;;;12.99;100.00;101259.47;4936951;29;20059;-75
2023/07/14 01:35:26;;;;;;;17.23;7.07;;;;;;;12.91;100.00;101254.13;4930483;28;20113;-75
2023/07/14 01:37:52;;;;;;;15.98;7.45;;;;;;;12.92;100.00;101255.78;4927399;29;20036;-74
2023/07/14 01:40:18;;;;;;;12.73;6.15;;;;;;;12.85;100.00;101255.59;4935513;29;20464;-73
2023/07/14 01:43:08;;;;;;;19.33;6.93;;;;;;;12.88;100.00;101255.28;4935299;28;20054;-73
2023/07/14 01:45:59;;;;;;;16.15;7.18;;;;;;;12.84;100.00;101249.41;4942086;28;20168;-73
2023/07/14 01:48:29;;;;;;;15.45;6.78;;;;;;;12.78;100.00;101249.22;4921363;29;20046;-75
2023/07/14 01:51:04;;;;;;;15.68;7.43;;;;;;;12.75;100.00;101250.41;4930410;29;20039;-75
2023/07/14 01:53:40;;;;;;;14.00;7.25;;;;;;;12.62;100.00;101240.16;4935251;29;20045;-75
2023/07/14 01:56:09;;;;;;;13.30;7.35;;;;;;;12.67;100.00;101248.53;4909836;29;20039;-75
2023/07/14 01:58:44;;;;;;;13.70;6.30;;;;;;;12.71;100.00;101265.09;4920898;29;20023;-76
2023/07/14 02:01:11;;;;;;;19.73;9.10;;;;;;;12.57;100.00;101258.56;4937266;28;20140;-74
2023/07/14 02:03:45;;;;;;;12.43;7.70;;;;;;;12.54;100.00;101271.44;4940126;29;20480;-75
2023/07/14 02:06:11;;;;;;;16.52;9.40;;;;;;;12.54;100.00;101269.59;4945587;29;20039;-75
2023/07/14 02:08:37;;;;;;;20.65;8.23;;;;;;;12.48;100.00;101262.22;4945657;29;20042;-75
2023/07/14 02:11:02;;;;;;;14.98;8.88;;;;;;;12.51;100.00;101275.28;4939473;29;20071;-74
2023/07/14 02:13:28;;;;;;;14.03;6.70;;;;;;;12.42;100.00;101268.22;4942481;29;20054;-75
2023/07/14 02:15:54;;;;;;;10.75;7.50;;;;;;;12.25;100.00;101254.78;4944656;28;20040;-73
2023/07/14 02:18:27;;;;;;;16.20;6.93;;;;;;;12.23;100.00;101253.25;4942618;29;20423;-75
2023/07/14 02:20:57;;;;;;;10.35;7.90;;;;;;;12.25;100.00;101260.13;4945354;29;20481;-74
2023/07/14 02:23:26;;;;;;;17.67;9.45;;;;;;;12.31;100.00;101260.47;4942795;28;20038;-75
2023/07/14 02:26:11;;;;;;;16.42;8.48;;;;;;;12.32;100.00;101275.56;4939678;29;20030;-75
2023/07/14 02:28:37;;;;;;;12.20;7.55;;;;;;;12.19;100.00;101266.09;4947081;28;20035;-74
2023/07/14 02:31:18;;;;;;;15.43;7.87;;;;;;;12.09;100.00;101254.69;4949077;29;20118;-76
2023/07/14 02:33:47;;;;;;;13.35;7.57;;;;;;;12.11;100.00;101257.22;4944321;29;20043;-73
2023/07/14 02:36:22;;;;;;;13.45;8.48;;;;;;;12.07;100.00;101251.34;4937491;29;20019;-75
2023/07/14 02:38:48;;;;;;;17.02;9.60;;;;;;;12.15;100.00;101264.78;4949686;28;20031;-75
2023/07/14 02:41:22;;;;;;;16.87;9.80;;;;;;;12.25;100.00;101270.00;4941807;29;20097;-74
2023/07/14 02:43:53;;;;;;;19.20;9.88;;;;;;;12.30;100.00;101274.88;4916362;29;20092;-75
2023/07/14 02:46:23;;;;;;;24.55;10.23;;;;;;;12.38;100.00;101281.06;4938284;29;20035;-74
2023/07/14 02:48:51;;;;;;;18.98;9.48;;;;;;;12.36;100.00;101269.72;4927056;29;20027;-73
2023/07/14 02:51:17;;;;;;;16.85;11.02;;;;;;;12.42;100.00;101270.91;4928787;29;20031;-74
2023/07/14 02:53:42;;;;;;;22.40;11.50;;;;;;;12.45;100.00;101267.88;4924407;28;20362;-74
2023/07/14 02:56:08;;;;;;;16.35;10.38;;;;;;;12.46;100.00;101266.91;4939969;28;20469;-74
2023/07/14 02:58:34;;;;;;;18.50;9.67;;;;;;;12.47;100.00;101265.88;4938329;28;20016;-74
2023/07/14 03:01:00;;;;;;;17.42;10.98;;;;;;;12.43;100.00;101260.03;4932318;29;20048;-75
2023/07/14 03:03:26;;;;;;;;;;;;;;;12.50;100.00;101268.22;4933258;29;20098;-75
2023/07/14 03:05:51;;;;;;;;;;;;;;;12.54;100.00;101268.75;4928886;29;19915;-75
2023/07/14 03:08:18;;;;;;;17.07;9.77;;;;;;;12.56;100.00;101261.41;4940360;29;20347;-75
2023/07/14 03:10:46;;;;;;;20.48;10.90;;;;;;;12.52;100.00;101257.38;4944757;29;20369;-75
2023/07/14 03:13:14;;;;;;;20.80;10.88;;;;;;;12.53;100.00;101257.22;4944865;29;20031;-75
2023/07/14 03:15:42;;;;;;;17.17;9.90;;;;;;;12.51;100.00;101258.38;4940264;29;20036;-75
2023/07/14 03:18:07;;;;;;;29.50;11.30;;;;;;;12.52;100.00;101260.88;4941634;29;20023;-75
2023/07/14 03:20:33;;;;;;;24.52;11.20;;;;;;;12.53;100.00;101261.75;4944673;29;20763;-75
2023/07/14 03:22:58;;;;;;;18.87;10.70;;;;;;;12.52;100.00;101266.22;4947095;28;20038;-75
2023/07/14 03:25:24;;;;;;;21.97;10.57;;;;;;;12.49;100.00;101255.84;4949143;28;20033;-75
2023/07/14 03:27:49;;;;;;;19.02;10.25;;;;;;;12.52;100.00;101252.00;4949169;29;20484;-75
2023/07/14 03:30:14;;;;;;;18.47;10.20;;;;;;;12.54;100.00;101245.50;4945822;28;20031;-75
2023/07/14 03:32:40;;;;;;;18.53;10.37;;;;;;;12.64;100.00;101261.41;4940187;29;20075;-75
2023/07/14 03:35:06;;;;;;;16.90;9.05;;;;;;;12.59;100.00;101248.50;4944409;28;20035;-74
2023/07/14 03:37:31;;;;;;;15.82;9.82;;;;;;;12.63;100.00;101251.72;4947975;29;20428;-75
2023/07/14 03:39:57;;;;;;;17.97;11.27;;;;;;;12.75;100.00;101254.91;4947673;29;20122;-75
2023/07/14 03:42:22;;;;;;;24.77;12.57;;;;;;;12.84;100.00;101259.28;4946811;29;20282;-75
2023/07/14 03:44:48;;;;;;;19.37;10.30;;;;;;;12.86;100.00;101254.63;4942641;29;20781;-75
2023/07/14 03:47:13;;;;;;;16.27;10.57;;;;;;;12.92;100.00;101253.09;4947765;29;20357;-75
2023/07/14 03:49:39;;;;;;;16.93;10.70;;;;;;;12.97;100.00;101253.44;4939403;29;20734;-75
2023/07/14 03:52:05;;;;;;;17.63;8.53;;;;;;;12.97;100.00;101250.75;4947140;29;20023;-75
2023/07/14 03:54:31;;;;;;;15.20;7.72;;;;;;;13.00;100.00;101253.13;4947158;29;20127;-75
2023/07/14 03:56:58;;;;;;;15.70;8.93;;;;;;;13.07;100.00;101257.66;4948526;29;20041;-75
2023/07/14 03:59:24;;;;;;;23.88;10.27;;;;;;;13.09;100.00;101252.97;4947193;29;20042;-75
2023/07/14 04:01:50;;;;;;;15.27;8.88;;;;;;;13.15;100.00;101251.44;4947138;29;20035;-75
2023/07/14 04:04:15;;;;;;;19.17;8.90;;;;;;;13.20;100.00;101253.63;4943747;29;20401;-75
2023/07/14 04:06:41;;;;;;;19.20;11.83;;;;;;;13.22;100.00;101251.63;4947386;28;20118;-75
2023/07/14 04:09:07;;;;;;;10.87;7.37;;;;;;;13.26;100.00;101252.97;4946453;29;20279;-75
2023/07/14 04:11:34;;;;;;;18.42;10.32;;;;;;;13.30;100.00;101252.50;4947013;29;20030;-75
2023/07/14 04:14:00;;;;;;;20.85;10.88;;;;;;;13.39;100.00;101263.22;4936527;29;20382;-75
2023/07/14 04:16:26;;;;;;;16.20;9.45;;;;;;;13.48;100.00;101254.97;4943898;29;20073;-75
2023/07/14 04:18:51;;;;;;;15.80;8.68;;;;;;;13.55;100.00;101259.69;4933799;28;20130;-75
2023/07/14 04:21:17;;;;;;;16.83;9.10;;;;;;;13.63;100.00;101259.69;4948222;29;20383;-75
2023/07/14 04:23:42;;;;;;;19.50;10.25;;;;;;;13.75;100.00;101252.94;4946613;29;20286;-75
2023/07/14 04:26:08;;;;;;;15.93;10.30;;;;;;;13.86;100.00;101249.91;4938122;29;20019;-76
2023/07/14 04:28:35;;;;;;;15.02;8.05;;;;;;;13.94;100.00;101249.88;4944800;29;20118;-75
2023/07/14 04:31:01;;;;;;;19.00;10.02;;;;;;;13.98;100.00;101254.88;4944253;29;20415;-75
2023/07/14 04:33:27;;;;;;;19.13;8.90;;;;;;;14.05;100.00;101246.00;4933470;29;20035;-75
2023/07/14 04:35:54;;;;;;;15.60;8.55;;;;;;;14.16;100.00;101250.13;4930705;29;20181;-75
2023/07/14 04:38:20;;;;;;;17.27;9.27;;;;;;;14.24;100.00;101250.09;4946792;29;20400;-76
2023/07/14 04:40:46;;;;;;;19.58;9.48;;;;;;;14.18;100.00;101240.06;4946712;29;20480;-75
2023/07/14 04:43:12;;;;;;;20.70;11.13;;;;;;;14.24;100.00;101234.00;4944124;29;20035;-75
2023/07/14 04:45:38;;;;;;;12.65;9.13;;;;;;;14.35;100.00;101239.00;4940737;29;20028;-76
2023/07/14 04:48:09;;;;;;;21.98;10.27;;;;;;;14.50;100.00;101241.75;4954225;28;20038;-76
2023/07/14 04:50:35;;;;;;;15.15;9.18;;;;;;;14.56;100.00;101226.81;4915702;29;20090;-75
2023/07/14 04:53:05;;;;;;;14.45;8.98;;;;;;;14.67;100.00;101231.78;4939596;28;20027;-76
2023/07/14 04:55:31;;;;;;;16.23;8.25;;;;;;;14.69;100.00;101216.31;4962193;28;20475;-76
2023/07/14 04:57:57;;;;;;;12.07;6.97;;;;;;;14.89;100.00;101221.22;4946465;29;20115;-75
2023/07/14 05:00:22;;;;;;;12.93;8.15;;;;;;;14.95;100.00;101217.81;4945955;29;20050;-75
2023/07/14 05:02:48;;;;;;;10.00;7.53;;;;;;;14.86;100.00;101202.75;4937895;29;20787;-76
2023/07/14 05:05:22;;;;;;;12.13;6.90;;;;;;;15.09;100.00;101203.59;4947364;29;20031;-76
2023/07/14 05:07:48;;;;;;;15.20;7.85;;;;;;;15.15;100.00;101200.19;4941077;29;20039;-75
2023/07/14 05:10:14;;;;;;;;;;;;;;;15.03;100.00;101193.56;4941552;29;20027;-75
2023/07/14 05:12:39;;;;;;;13.38;7.95;;;;;;;15.20;100.00;101178.94;4932139;29;19919;-76
2023/07/14 05:15:10;;;;;;;18.77;9.17;;;;;;;15.45;100.00;101200.22;4935884;29;20440;-76
2023/07/14 05:17:36;;;;;;;11.57;6.47;;;;;;;15.60;100.00;101184.09;4927233;29;20074;-76
2023/07/14 05:20:02;;;;;;;13.88;6.28;;;;;;;15.62;100.00;101182.91;4930076;28;20078;-75
2023/07/14 05:22:28;;;;;;;12.07;6.38;;;;;;;15.89;100.00;101172.50;4946987;29;20038;-76
2023/07/14 05:24:53;;;;;;;8.60;5.65;;;;;;;16.10;100.00;101158.28;4936592;29;20037;-76
2023/07/14 05:27:20;;;;;;;8.53;5.10;;;;;;;16.21;100.00;101140.81;4934748;29;20036;-75
2023/07/14 05:29:46;;;;;;;;;;;;;;;16.13;100.00;101127.44;4927111;28;20043;-75
2023/07/14 05:32:12;;;;;;;8.85;5.45;;;;;;;16.31;100.00;101117.06;4930811;28;19915;-75
2023/07/14 05:34:37;;;;;;;12.50;5.55;;;;;;;16.58;100.00;101111.97;4937298;29;20144;-75
2023/07/14 05:37:03;;;;;;;6.32;4.25;;;;;;;17.26;100.00;101088.88;4939242;29;20039;-75
2023/07/14 05:39:29;;;;;;;6.47;4.47;;;;;;;17.96;100.00;101040.19;4927911;29;20040;-74
2023/07/14 05:41:58;;;;;;;6.20;4.00;;;;;;;18.54;100.00;100929.63;4939520;29;20374;-74
2023/07/14 05:44:24;;;;;;;5.63;3.22;;;;;;;18.84;100.00;100883.16;4962727;23;20769;-90
2023/07/14 05:46:50;;;;;;;8.05;4.22;;;;;;;19.38;100.00;100761.94;4971126;28;20046;-89
2023/07/14 05:49:16;;;;;;;6.65;3.47;;;;;;;19.56;100.00;100701.59;4957488;28;20023;-91
2023/07/14 05:51:41;;;;;;;5.88;3.90;;;;;;;19.94;100.00;100611.19;4949988;29;20081;-91
2023/07/14 05:54:07;;;;;;;8.10;3.50;;;;;;;19.88;100.00;100471.22;4973647;28;20106;-91
2023/07/14 05:56:32;;;;;;;8.27;3.23;;;;;;;20.69;100.00;100468.94;4974269;28;20871;-92
2023/07/14 05:58:58;;;;;;;8.60;3.40;;;;;;;20.72;100.00;100377.06;4974941;28;20274;-90
2023/07/14 06:01:23;;;;;;;5.95;3.15;;;;;;;20.68;100.00;100361.50;4964926;28;20598;-89
2023/07/14 06:03:49;;;;;;;7.47;3.80;;;;;;;20.47;100.00;100241.72;4959362;28;20023;-91
2023/07/14 06:06:14;;;;;;;5.43;4.13;;;;;;;19.67;100.00;100499.66;4971881;28;20030;-92
2023/07/14 06:08:40;;;;;;;9.20;3.03;;;;;;;19.91;100.00;100542.03;4975734;28;20065;-92
2023/07/14 06:11:05;;;;;;;4.32;2.63;;;;;;;21.27;100.00;100530.47;4975008;28;20101;-92
2023/07/14 06:13:31;;;;;;;5.93;3.03;;;;;;;21.43;100.00;100236.47;4974700;28;20030;-92
2023/07/14 06:15:56;;;;;;;8.20;2.80;;;;;;;20.59;100.00;100377.31;4969222;28;20054;-93
2023/07/14 06:18:22;;;;;;;4.68;2.20;;;;;;;21.99;100.00;100493.91;4973940;28;20298;-92
2023/07/14 06:20:48;;;;;;;5.88;3.08;;;;;;;21.67;100.00;100181.97;4952205;28;20039;-92
2023/07/14 06:23:14;;;;;;;11.77;1.88;;;;;;;22.54;100.00;100281.03;4975715;28;20023;-93
2023/07/14 06:25:39;;;;;;;6.35;3.28;;;;;;;22.18;100.00;100089.41;4979960;28;20031;-92
2023/07/14 06:28:05;;;;;;;4.93;2.38;;;;;;;22.39;100.00;100202.81;4953790;28;20025;-94
2023/07/14 06:30:30;;;;;;;3.65;2.10;;;;;;;23.41;99.58;100260.19;4977982;28;20062;-92
2023/07/14 06:32:56;;;;;;;3.60;2.28;;;;;;;24.07;94.64;100186.28;4966134;28;20042;-92
2023/07/14 06:35:23;;;;;;;9.60;2.63;;;;;;;23.03;91.54;99942.72;4975120;28;20026;-92
2023/07/14 06:37:48;;;;;;;2.88;2.53;;;;;;;22.46;94.11;100099.25;4956442;28;20019;-93
2023/07/14 06:40:13;;;;;;;9.37;2.80;;;;;;;21.93;97.97;100305.44;4974156;28;20524;-93
2023/07/14 06:42:39;;;;;;;8.07;2.83;;;;;;;21.58;98.36;100271.22;4977783;28;20420;-92
2023/07/14 06:45:05;;;;;;;5.33;2.33;;;;;;;21.92;97.77;100345.41;4967068;28;20023;-93
2023/07/14 06:47:32;;;;;;;4.53;2.78;;;;;;;21.18;100.00;100480.31;4978335;28;20331;-91
2023/07/14 06:49:58;;;;;;;7.68;2.88;;;;;;;21.95;98.85;100441.09;4957862;28;20043;-92
2023/07/14 06:52:23;;;;;;;6.30;2.78;;;;;;;21.53;100.00;100531.84;4971881;28;20026;-93
2023/07/14 06:54:49;;;;;;;7.95;2.78;;;;;;;21.93;99.20;100496.50;4984781;28;20058;-94
2023/07/14 06:57:14;;;;;;;5.30;2.87;;;;;;;22.07;98.05;100475.28;4986886;28;20011;-92
2023/07/14 06:59:39;;;;;;;5.90;2.57;;;;;;;20.82;95.44;100113.31;4981129;28;20169;-92
2023/07/14 07:02:05;;;;;;;6.13;2.20;;;;;;;19.98;100.00;100601.56;4984347;28;20285;-92
2023/07/14 07:04:34;;;;;;;5.90;2.40;;;;;;;20.77;100.00;100696.47;4981789;28;20041;-92
2023/07/14 07:07:00;;;;;;;8.10;1.80;;;;;;;22.31;100.00;100755.25;4962705;28;20043;-92
2023/07/14 07:09:25;;;;;;;4.20;1.42;;;;;;;23.33;95.12;100560.28;4990812;28;20023;-92
2023/07/14 07:11:51;;;;;;;5.60;1.80;;;;;;;23.02;94.82;100529.91;4962403;28;20043;-92
2023/07/14 07:14:16;;;;;;;8.93;2.10;;;;;;;22.40;95.29;100473.69;4981325;28;20317;-91
2023/07/14 07:16:41;;;;;;;4.53;1.70;;;;;;;22.42;93.36;100384.50;4975152;28;20042;-93
2023/07/14 07:19:07;;;;;;;4.20;2.07;;;;;;;22.02;92.20;100230.56;4963706;28;20503;-90
2023/07/14 07:21:33;;;;;;;5.70;2.20;;;;;;;21.68;94.20;100324.88;4969291;28;20338;-91
2023/07/14 07:23:58;;;;;;;;;;;;;;;21.48;97.98;100524.44;4975154;28;20086;-92
2023/07/14 07:26:24;;;;;;;7.00;2.10;;;;;;;20.98;97.33;100351.28;4957733;28;19910;-91
2023/07/14 07:28:49;;;;;;;5.93;2.77;;;;;;;20.82;100.00;100775.28;4972462;28;20069;-92
2023/07/14 07:31:14;;;;;;;5.30;2.40;;;;;;;20.63;100.00;100679.56;4966487;28;20050;-92
2023/07/14 07:33:42;;;;;;;7.38;2.40;;;;;;;21.11;100.00;100727.44;4969784;28;20036;-92
2023/07/14 07:36:27;;;;;;;6.75;2.63;;;;;;;21.13;100.00;100643.91;4955863;28;20672;-92
2023/07/14 07:38:53;;;;;;;5.60;2.83;;;;;;;20.80;100.00;100712.28;4958528;28;20125;-91
2023/07/14 07:41:22;;;;;;;11.07;2.80;;;;;;;21.24;100.00;100913.78;4974130;28;20038;-92
2023/07/14 07:43:47;;;;;;;7.47;3.25;;;;;;;21.97;100.00;100703.41;4972959;28;20773;-92
2023/07/14 07:46:13;;;;;;;7.28;2.70;;;;;;;22.70;100.00;100794.44;4974546;28;20073;-92
2023/07/14 07:48:40;;;;;;;7.40;3.10;;;;;;;22.72;99.52;100721.53;4965761;28;20043;-92
2023/07/14 07:51:06;;;;;;;5.53;2.65;;;;;;;22.14;95.66;100420.75;4973600;28;20086;-92
2023/07/14 07:53:32;;;;;;;3.97;2.28;;;;;;;22.93;96.90;100713.75;4964120;28;20049;-92
2023/07/14 07:55:59;;;;;;;9.25;2.50;;;;;;;22.73;92.23;100396.66;4955936;28;20030;-92
2023/07/14 07:58:25;;;;;;;6.88;2.60;;;;;;;23.63;91.74;100583.56;4970874;28;20054;-93
2023/07/14 08:01:00;;;;;;;9.38;2.75;;;;;;;23.69;87.13;100331.81;4972552;28;20644;-90
2023/07/14 08:03:26;;;;;;;9.48;2.53;;;;;;;24.00;86.44;100403.81;4972482;28;20039;-92
2023/07/14 08:05:57;;;;;;;7.28;2.33;;;;;;;22.52;85.14;100019.34;4972225;28;20527;-91
2023/07/14 08:08:22;;;;;;;6.32;3.30;;;;;;;21.71;90.73;100265.44;4971758;28;20034;-91
2023/07/14 08:10:47;;;;;;;6.67;2.37;;;;;;;21.38;93.46;100379.47;4953085;28;20026;-91
2023/07/14 08:13:14;;;;;;;6.47;2.75;;;;;;;21.58;92.27;100363.56;4971752;28;20031;-92
2023/07/14 08:15:40;;;;;;;6.00;3.00;;;;;;;21.35;95.12;100473.06;4972008;28;20114;-93
2023/07/14 08:18:07;;;;;;;8.67;3.77;;;;;;;22.13;96.57;100726.31;4972356;28;20158;-92
2023/07/14 08:20:34;;;;;;;5.28;2.22;;;;;;;22.60;90.72;100484.06;4961350;28;20269;-92
2023/07/14 08:23:04;;;;;;;5.80;2.45;;;;;;;23.37;87.61;100480.53;4972724;28;20034;-92
2023/07/14 08:25:29;;;;;;;6.43;2.50;;;;;;;22.96;84.26;100164.19;4976361;28;20050;-91
2023/07/14 08:27:55;;;;;;;4.10;2.00;;;;;;;23.10;82.09;100102.00;4969739;28;20055;-92
2023/07/14 08:30:20;;;;;;;7.73;3.40;;;;;;;22.26;82.72;99955.75;4965306;28;20042;-90
2023/07/14 08:32:49;;;;;;;4.57;1.77;;;;;;;22.70;84.96;100280.16;4971110;28;20038;-91
2023/07/14 08:35:19;;;;;;;6.38;2.10;;;;;;;23.79;80.48;100179.31;4974195;28;20117;-92
2023/07/14 08:37:45;;;;;;;4.25;2.03;;;;;;;22.89;80.49;100043.84;4956381;28;20078;-92
2023/07/14 08:40:20;;;;;;;6.78;2.42;;;;;;;22.66;80.77;100015.09;4971422;28;20518;-88
2023/07/14 08:43:13;;;;;;;6.77;2.80;;;;;;;22.74;79.13;99960.22;4969617;28;20047;-90
2023/07/14 08:45:51;;;;;;;9.45;2.65;;;;;;;23.57;78.55;100160.34;4970045;28;20298;-89
2023/07/14 08:48:45;;;;;;;2.78;2.17;;;;;;;22.77;78.35;99975.19;4970619;28;20076;-90
2023/07/14 08:51:18;;;;;;;7.70;2.58;;;;;;;23.59;78.04;100188.97;4970491;28;20109;-89
2023/07/14 08:53:57;;;;;;;5.00;2.15;;;;;;;24.42;75.33;100141.13;4969849;28;20425;-91
2023/07/14 08:56:24;;;;;;;6.75;2.53;;;;;;;23.06;73.58;99643.59;4960991;28;20025;-89
2023/07/14 08:58:52;;;;;;;6.03;1.95;;;;;;;23.04;73.36;99693.91;4970675;28;20570;-90
2023/07/14 09:01:41;;;;;;;7.20;2.75;;;;;;;23.28;75.17;99999.22;4970528;28;20030;-90
2023/07/14 09:04:18;;;;;;;7.30;2.63;;;;;;;23.76;73.74;99980.88;4970517;28;20034;-90
2023/07/14 09:06:44;;;;;;;4.35;1.85;;;;;;;23.15;71.62;99619.34;4969929;28;20492;-88
2023/07/14 09:09:29;;;;;;;4.10;1.83;;;;;;;24.16;70.79;99889.31;4968810;28;20025;-88
2023/07/14 09:12:25;;;;;;;4.82;2.38;;;;;;;23.07;70.40;99502.84;4969349;28;20043;-88
2023/07/14 09:14:58;;;;;;;5.45;1.88;;;;;;;22.44;73.28;99669.81;4964817;28;20093;-88
2023/07/14 09:17:47;;;;;;;4.32;2.20;;;;;;;23.31;74.82;100140.28;4970804;28;20031;-88
2023/07/14 09:20:35;;;;;;;4.28;1.90;;;;;;;23.81;72.73;100019.03;4971223;28;20049;-90
2023/07/14 09:23:09;;;;;;;3.45;1.73;;;;;;;23.73;71.19;99842.41;4967654;28;20039;-89
2023/07/14 09:25:41;;;;;;;7.60;2.28;;;;;;;23.97;71.31;99897.25;4977182;28;20034;-90
2023/07/14 09:28:37;;;;;;;7.10;2.50;;;;;;;22.99;71.21;99653.91;4976981;28;20030;-92
2023/07/14 09:31:06;;;;;;;;;;;;;;;23.65;70.32;99819.25;4973248;28;20046;-89
2023/07/14 09:33:44;;;;;;;7.63;2.67;;;;;;;22.83;70.04;99497.13;4959538;28;19914;-88
2023/07/14 09:36:11;;;;;;;5.93;2.28;;;;;;;24.58;71.37;100207.47;4943891;28;20222;-88
2023/07/14 09:38:48;;;;;;;7.18;2.13;;;;;;;24.83;66.68;99702.53;4975907;28;20077;-89
2023/07/14 09:41:16;;;;;;;9.00;2.33;;;;;;;24.07;68.57;99751.91;4945673;28;20540;-90
2023/07/14 09:43:43;;;;;;;6.57;2.30;;;;;;;24.50;67.13;99701.34;4975380;28;20037;-89
2023/07/14 09:46:09;;;;;;;5.03;2.03;;;;;;;23.77;67.60;99554.69;4943988;28;20034;-90
2023/07/14 09:48:42;;;;;;;5.15;2.20;;;;;;;24.53;67.41;99829.03;4976156;28;20026;-90
2023/07/14 09:51:12;;;;;;;5.50;1.67;;;;;;;25.17;69.07;100187.94;4972601;28;20058;-89
2023/07/14 09:53:39;;;;;;;7.13;3.08;;;;;;;24.29;64.01;99359.69;4972668;28;20461;-89
2023/07/14 09:56:19;;;;;;;4.85;2.28;;;;;;;25.19;64.45;99687.84;4975818;28;20025;-90
2023/07/14 09:58:53;;;;;;;4.10;2.20;;;;;;;25.08;64.80;99740.91;4976097;28;20042;-89
2023/07/14 10:01:19;;;;;;;4.35;2.10;;;;;;;25.11;63.23;99528.13;4973028;28;20034;-88
2023/07/14 10:03:51;;;;;;;4.75;2.22;;;;;;;25.44;63.09;99632.19;4974165;28;20022;-92
2023/07/14 10:06:20;;;;;;;4.38;2.10;;;;;;;26.55;62.57;99868.47;4979434;28;20508;-92
2023/07/14 10:08:54;;;;;;;4.15;2.13;;;;;;;26.77;60.35;99651.69;4974017;28;20081;-90
2023/07/14 10:11:25;;;;;;;3.92;1.90;;;;;;;25.77;60.92;99503.91;4972786;28;20066;-92
2023/07/14 10:13:57;;;;;;;4.65;2.20;;;;;;;26.30;61.38;99780.06;4973514;28;20043;-92
2023/07/14 10:16:24;;;;;;;4.47;2.65;;;;;;;26.64;59.02;99576.56;4977519;28;20062;-91
2023/07/14 10:18:54;;;;;;;4.43;1.90;;;;;;;26.53;59.33;99557.56;4973587;28;20097;-91
2023/07/14 10:21:29;;;;;;;6.20;2.35;;;;;;;25.57;59.70;99306.34;4971608;28;20085;-91
2023/07/14 10:23:58;;;;;;;3.70;1.80;;;;;;;25.95;62.12;99749.25;4975500;28;20527;-91
2023/07/14 10:26:26;;;;;;;3.63;2.15;;;;;;;25.61;61.82;99646.22;4975984;28;20029;-90
2023/07/14 10:28:53;;;;;;;4.38;2.20;;;;;;;25.34;61.68;99544.88;4975566;28;20034;-90
2023/07/14 10:31:40;;;;;;;5.25;2.20;;;;;;;26.52;63.15;100086.06;4973075;28;20041;-90
2023/07/14 10:34:07;;;;;;;4.55;2.00;;;;;;;26.62;58.80;99578.78;4972242;28;20030;-90
2023/07/14 10:36:37;;;;;;;6.47;2.17;;;;;;;26.68;59.17;99668.75;4972766;28;20027;-90
2023/07/14 10:39:39;;;;;;;7.78;2.03;;;;;;;26.58;57.54;99394.41;4965958;28;20066;-91
2023/07/14 10:42:20;;;;;;;5.28;2.42;;;;;;;26.69;57.46;99396.66;4968982;28;20042;-90
2023/07/14 10:44:46;;;;;;;3.92;2.17;;;;;;;26.48;60.12;99790.25;4969365;28;20077;-90
2023/07/14 10:47:18;;;;;;;5.72;1.65;;;;;;;27.55;59.99;100099.69;4956652;28;20030;-91
2023/07/14 10:50:10;;;;;;;7.55;2.42;;;;;;;27.08;56.71;99507.63;4972666;28;20512;-91
2023/07/14 10:52:39;;;;;;;3.80;2.00;;;;;;;26.07;57.99;99390.59;4965764;28;20051;-91
2023/07/14 10:55:13;;;;;;;5.28;2.38;;;;;;;27.77;58.00;99891.56;4973046;28;20102;-90
2023/07/14 10:57:45;;;;;;;4.13;2.50;;;;;;;26.31;53.92;98895.34;4972698;28;20042;-90
2023/07/14 11:00:30;;;;;;;4.50;2.00;;;;;;;25.58;55.93;98979.25;4942311;28;20027;-91
2023/07/14 11:03:07;;;;;;;5.07;2.47;;;;;;;25.28;57.28;99093.44;4973430;28;20050;-90
2023/07/14 11:05:33;;;;;;;3.85;2.25;;;;;;;25.58;59.77;99633.13;4973552;28;20035;-89
2023/07/14 11:07:59;;;;;;;4.20;2.13;;;;;;;26.25;57.52;99529.25;4973518;28;20023;-89
2023/07/14 11:11:08;;;;;;;4.00;2.40;;;;;;;26.13;58.81;99653.88;4970653;28;20037;-89
2023/07/14 11:13:57;;;;;;;4.80;1.77;;;;;;;26.64;57.11;99577.38;4989732;23;20051;-74
2023/07/14 11:17:05;;;;;;;4.22;2.45;;;;;;;26.74;56.13;99376.59;4955394;28;20034;-74
2023/07/14 11:19:58;;;;;;;3.50;2.20;;;;;;;26.55;55.25;99269.13;4957828;28;20046;-73
2023/07/14 11:22:45;;;;;;;4.88;2.75;;;;;;;26.66;53.69;99068.00;4950152;28;20034;-74
2023/07/14 11:25:24;;;;;;;4.03;2.10;;;;;;;26.94;54.30;99282.25;4953228;28;20635;-74
2023/07/14 11:28:14;;;;;;;5.88;2.30;;;;;;;26.01;54.11;98922.31;4950712;28;20050;-74
2023/07/14 11:30:43;;;;;;;3.70;2.40;;;;;;;24.98;55.06;98765.28;4967231;28;20030;-73
2023/07/14 11:33:24;;;;;;;3.60;1.92;;;;;;;24.73;56.16;98916.69;4953209;28;20527;-74